createdAt,value
2019-04-05T00:01:05.189Z,19.33
2019-04-05T00:03:33.439Z,18.93
2019-04-05T00:06:01.741Z,19.80
2019-04-05T00:08:30.001Z,19.43
2019-04-05T00:10:58.306Z,19.50
2019-04-05T00:13:26.605Z,19.23
2019-04-05T00:15:54.873Z,19.53
2019-04-05T00:18:23.097Z,20.07
2019-04-05T00:20:51.422Z,17.87
2019-04-05T00:23:19.652Z,18.23
2019-04-05T00:25:47.977Z,19.43
2019-04-05T00:28:16.283Z,17.90
2019-04-05T00:30:44.608Z,18.83
2019-04-05T00:33:12.870Z,19.43
2019-04-05T00:35:41.177Z,19.23
2019-04-05T00:38:09.429Z,19.67
2019-04-05T00:40:37.727Z,19.80
2019-04-05T00:43:06.072Z,19.87
2019-04-05T00:45:34.359Z,20.50
2019-04-05T00:48:02.594Z,20.10
2019-04-05T00:50:30.937Z,20.63
2019-04-05T00:52:59.229Z,20.93
2019-04-05T00:55:28.141Z,21.67
2019-04-05T00:57:56.455Z,21.13
2019-04-05T01:00:25.430Z,20.03
2019-04-05T01:02:53.793Z,20.87
2019-04-05T01:05:22.185Z,19.77
2019-04-05T01:07:50.486Z,19.67
2019-04-05T01:10:19.125Z,19.67
2019-04-05T01:12:47.427Z,19.10
2019-04-05T01:15:17.165Z,20.20
2019-04-05T01:17:45.500Z,19.47
2019-04-05T01:20:14.110Z,19.63
2019-04-05T01:22:43.918Z,19.30
2019-04-05T01:25:12.208Z,19.23
2019-04-05T01:27:40.853Z,20.40
2019-04-05T01:30:10.620Z,20.90
2019-04-05T01:32:38.944Z,20.37
2019-04-05T01:35:07.504Z,20.83
2019-04-05T01:37:36.833Z,20.93
2019-04-05T01:40:06.645Z,22.27
2019-04-05T01:42:35.977Z,21.83
2019-04-05T01:45:05.889Z,21.00
2019-04-05T01:47:34.299Z,21.53
2019-04-05T01:50:02.591Z,21.40
2019-04-05T01:52:30.924Z,21.83
2019-04-05T01:54:59.154Z,21.20
2019-04-05T01:57:27.481Z,21.13
2019-04-05T01:59:55.781Z,22.43
2019-04-05T02:02:24.113Z,21.70
2019-04-05T02:04:52.894Z,23.57
2019-04-05T02:07:21.533Z,22.00
2019-04-05T02:09:49.841Z,21.90
2019-04-05T02:12:18.138Z,22.30
2019-04-05T02:14:56.610Z,23.00
2019-04-05T02:17:23.243Z,23.20
2019-04-05T02:19:51.573Z,22.30
2019-04-05T02:22:19.952Z,22.00
2019-04-05T02:24:48.363Z,22.60
2019-04-05T02:27:16.660Z,22.97
2019-04-05T02:29:44.984Z,22.83
2019-04-05T02:32:13.221Z,23.47
2019-04-05T02:34:41.561Z,22.50
2019-04-05T02:37:09.853Z,22.83
2019-04-05T02:39:38.143Z,21.17
2019-04-05T02:42:06.483Z,21.57
2019-04-05T02:44:34.765Z,23.03
2019-04-05T02:47:03.992Z,23.10
2019-04-05T02:49:33.593Z,23.63
2019-04-05T02:52:02.621Z,24.87
2019-04-05T02:54:30.922Z,24.67
2019-04-05T02:56:59.339Z,25.60
2019-04-05T02:59:28.055Z,23.77
2019-04-05T03:01:56.385Z,24.80
2019-04-05T03:04:24.680Z,25.53
2019-04-05T03:06:53.012Z,25.33
2019-04-05T03:09:21.810Z,22.50
2019-04-05T03:11:50.842Z,23.40
2019-04-05T03:14:20.136Z,24.07
2019-04-05T03:16:53.613Z,22.27
2019-04-05T03:19:26.903Z,23.17
2019-04-05T03:21:59.144Z,23.13
2019-04-05T03:24:28.929Z,25.63
2019-04-05T03:26:59.672Z,24.47
2019-04-05T03:29:27.988Z,23.80
2019-04-05T03:31:56.593Z,24.40
2019-04-05T03:34:24.915Z,25.17
2019-04-05T03:36:53.639Z,24.53
2019-04-05T03:39:22.965Z,24.27
2019-04-05T03:41:52.564Z,23.17
2019-04-05T03:44:22.994Z,24.77
2019-04-05T03:46:56.925Z,23.77
2019-04-05T03:49:21.414Z,22.87
2019-04-05T03:51:52.334Z,22.60
2019-04-05T03:54:20.661Z,22.27
2019-04-05T03:56:48.953Z,21.37
2019-04-05T03:59:17.364Z,20.77
2019-04-05T04:01:46.080Z,20.00
2019-04-05T04:04:14.304Z,19.33
2019-04-05T04:06:42.647Z,20.37
2019-04-05T04:09:10.903Z,20.80
2019-04-05T04:11:39.202Z,19.40
2019-04-05T04:14:07.926Z,19.83
2019-04-05T04:16:36.224Z,21.47
2019-04-05T04:19:04.522Z,20.30
2019-04-05T04:21:34.320Z,21.13
2019-04-05T04:24:03.037Z,20.43
2019-04-05T04:26:31.972Z,20.20
2019-04-05T04:29:00.260Z,21.23
2019-04-05T04:31:28.595Z,19.60
2019-04-05T04:33:56.987Z,18.97
2019-04-05T04:36:25.524Z,19.40
2019-04-05T04:38:54.512Z,19.83
2019-04-05T04:41:22.911Z,19.50
2019-04-05T04:43:51.540Z,19.37
2019-04-05T04:46:20.569Z,19.30
2019-04-05T04:48:48.965Z,20.90
2019-04-05T04:51:17.897Z,21.57
2019-04-05T04:53:46.387Z,21.33
2019-04-05T04:56:14.716Z,21.23
2019-04-05T04:58:42.940Z,20.70
2019-04-05T05:01:11.281Z,21.80
2019-04-05T05:03:39.600Z,22.40
2019-04-05T05:06:07.984Z,22.23
2019-04-05T05:08:36.324Z,22.17
2019-04-05T05:11:14.007Z,22.53
2019-04-05T05:13:34.645Z,22.03
2019-04-05T05:16:03.061Z,23.13
2019-04-05T05:18:31.391Z,22.17
2019-04-05T05:20:59.677Z,20.33
2019-04-05T05:23:28.008Z,19.77
2019-04-05T05:25:56.300Z,19.83
2019-04-05T05:28:24.604Z,20.00
2019-04-05T05:30:52.950Z,20.10
2019-04-05T05:33:21.174Z,20.83
2019-04-05T05:35:49.607Z,19.07
2019-04-05T05:38:17.909Z,21.80
2019-04-05T05:40:46.256Z,19.60
2019-04-05T05:43:14.555Z,19.03
2019-04-05T05:45:42.807Z,20.10
2019-04-05T05:48:11.113Z,20.03
2019-04-05T05:50:39.372Z,20.53
2019-04-05T05:53:07.606Z,20.90
2019-04-05T05:55:36.137Z,19.07
2019-04-05T05:58:04.437Z,19.23
2019-04-05T06:00:32.696Z,19.50
2019-04-05T06:03:00.927Z,19.77
2019-04-05T06:05:29.160Z,20.43
2019-04-05T06:07:58.723Z,19.73
2019-04-05T06:10:27.305Z,19.83
2019-04-05T06:12:58.549Z,20.47
2019-04-05T06:15:25.435Z,20.57
2019-04-05T06:18:04.141Z,19.77
2019-04-05T06:20:23.713Z,19.17
2019-04-05T06:22:51.973Z,19.47
2019-04-05T06:25:20.364Z,17.90
2019-04-05T06:27:48.662Z,19.27
2019-04-05T06:30:16.948Z,17.83
2019-04-05T06:32:45.225Z,18.07
2019-04-05T06:35:13.525Z,17.67
2019-04-05T06:37:41.754Z,17.50
2019-04-05T06:40:10.076Z,17.37
2019-04-05T06:42:38.383Z,18.60
2019-04-05T06:45:06.761Z,16.37
2019-04-05T06:47:35.008Z,17.80
2019-04-05T06:50:04.742Z,18.10
2019-04-05T06:52:32.974Z,17.70
2019-04-05T06:55:01.279Z,18.40
2019-04-05T06:57:29.480Z,18.57
2019-04-05T06:59:57.741Z,19.53
2019-04-05T07:02:26.043Z,18.07
2019-04-05T07:04:54.299Z,18.67
2019-04-05T07:07:22.524Z,19.00
2019-04-05T07:09:50.761Z,19.03
2019-04-05T07:12:20.572Z,19.27
2019-04-05T07:14:49.041Z,19.03
2019-04-05T07:17:17.301Z,19.30
2019-04-05T07:19:45.596Z,17.83
2019-04-05T07:22:13.857Z,19.27
2019-04-05T07:24:42.147Z,18.93
2019-04-05T07:27:10.393Z,19.30
2019-04-05T07:29:38.625Z,17.73
2019-04-05T07:32:06.888Z,18.97
2019-04-05T07:34:35.117Z,17.50
2019-04-05T07:37:03.452Z,16.93
2019-04-05T07:39:31.682Z,17.20
2019-04-05T07:42:00.048Z,17.80
2019-04-05T07:44:28.314Z,17.03
2019-04-05T07:46:56.689Z,17.57
2019-04-05T07:49:25.067Z,17.23
2019-04-05T07:51:53.284Z,17.83
2019-04-05T07:54:21.620Z,16.80
2019-04-05T07:56:49.952Z,16.90
2019-04-05T07:59:20.770Z,17.80
2019-04-05T08:01:48.137Z,17.37
2019-04-05T08:04:16.464Z,18.20
2019-04-05T08:06:46.294Z,16.23
2019-04-05T08:09:15.596Z,18.07
2019-04-05T08:11:44.335Z,16.33
2019-04-05T08:14:13.532Z,17.67
2019-04-05T08:16:41.791Z,17.77
2019-04-05T08:19:10.093Z,17.07
2019-04-05T08:21:38.415Z,17.70
2019-04-05T08:24:06.790Z,18.60
2019-04-05T08:26:35.053Z,17.20
2019-04-05T08:29:03.860Z,17.33
2019-04-05T08:31:32.129Z,18.03
2019-04-05T08:34:00.431Z,17.87
2019-04-05T08:36:28.692Z,18.50
2019-04-05T08:38:56.992Z,17.60
2019-04-05T08:41:25.320Z,18.43
2019-04-05T08:43:53.551Z,18.13
2019-04-05T08:46:21.879Z,18.20
2019-04-05T08:48:52.337Z,17.60
2019-04-05T08:51:20.087Z,18.10
2019-04-05T08:53:48.316Z,17.07
2019-04-05T08:56:16.570Z,17.10
2019-04-05T08:58:44.798Z,17.17
2019-04-05T09:01:13.057Z,17.33
2019-04-05T09:03:41.285Z,17.00
2019-04-05T09:06:09.611Z,17.47
2019-04-05T09:08:38.123Z,16.90
2019-04-05T09:11:06.379Z,17.30
2019-04-05T09:13:34.604Z,16.63
2019-04-05T09:16:02.857Z,17.30
2019-04-05T09:18:31.107Z,16.67
2019-04-05T09:20:59.368Z,17.40
2019-04-05T09:23:27.709Z,17.57
2019-04-05T09:25:58.475Z,17.63
2019-04-05T09:28:26.705Z,16.67
2019-04-05T09:30:55.033Z,17.03
2019-04-05T09:33:23.269Z,17.67
2019-04-05T09:35:51.996Z,16.50
2019-04-05T09:38:20.294Z,17.00
2019-04-05T09:40:48.608Z,16.80
2019-04-05T09:43:16.840Z,17.07
2019-04-05T09:45:45.098Z,16.87
2019-04-05T09:48:13.431Z,16.53
2019-04-05T09:50:41.649Z,17.43
2019-04-05T09:53:09.926Z,16.93
2019-04-05T09:55:38.157Z,17.40
2019-04-05T09:58:09.707Z,17.00
2019-04-05T10:00:36.601Z,17.13
2019-04-05T10:03:04.944Z,17.20
2019-04-05T10:05:33.296Z,16.57
2019-04-05T10:08:01.619Z,17.03
2019-04-05T10:10:29.919Z,17.00
2019-04-05T10:12:58.187Z,15.37
2019-04-05T10:15:27.321Z,15.87
2019-04-05T10:17:55.804Z,16.33
2019-04-05T10:20:24.068Z,16.13
2019-04-05T10:22:52.388Z,16.43
2019-04-05T10:25:20.637Z,16.37
2019-04-05T10:27:49.013Z,17.30
2019-04-05T10:30:17.345Z,17.50
2019-04-05T10:32:46.296Z,15.37
2019-04-05T10:35:15.070Z,16.50
2019-04-05T10:37:43.302Z,16.40
2019-04-05T10:40:11.832Z,17.00
2019-04-05T10:42:40.073Z,16.67
2019-04-05T10:45:08.991Z,16.63
2019-04-05T10:47:37.444Z,17.50
2019-04-05T10:50:07.241Z,16.00
2019-04-05T10:52:35.550Z,16.20
2019-04-05T10:55:04.395Z,16.50
2019-04-05T10:57:32.766Z,16.20
2019-04-05T11:00:01.100Z,16.83
2019-04-05T11:02:29.413Z,16.43
2019-04-05T11:04:57.735Z,17.10
2019-04-05T11:07:26.044Z,15.23
2019-04-05T11:09:54.321Z,16.07
2019-04-05T11:12:22.663Z,16.83
2019-04-05T11:14:50.902Z,16.73
2019-04-05T11:17:19.168Z,16.33
2019-04-05T11:19:47.397Z,16.93
2019-04-05T11:22:15.660Z,16.47
2019-04-05T11:24:43.928Z,16.20
2019-04-05T11:27:12.258Z,16.37
2019-04-05T11:29:41.785Z,15.97
2019-04-05T11:32:10.270Z,14.53
2019-04-05T11:34:38.663Z,15.97
2019-04-05T11:37:07.097Z,16.77
2019-04-05T11:39:35.397Z,15.67
2019-04-05T11:42:03.737Z,13.20
2019-04-05T11:44:32.842Z,12.63
2019-04-05T11:47:01.357Z,13.90
2019-04-05T11:49:30.044Z,14.50
2019-04-05T11:51:58.485Z,14.63
2019-04-05T11:54:26.788Z,13.97
2019-04-05T11:56:55.134Z,14.13
2019-04-05T11:59:23.518Z,14.13
2019-04-05T12:01:55.937Z,14.57
2019-04-05T12:04:24.174Z,12.93
2019-04-05T12:06:52.629Z,12.57
2019-04-05T12:09:20.980Z,14.17
2019-04-05T12:11:49.650Z,12.77
2019-04-05T12:14:29.597Z,13.03
2019-04-05T12:16:48.265Z,12.90
2019-04-05T12:19:16.495Z,12.20
2019-04-05T12:21:44.825Z,13.20
2019-04-05T12:24:13.134Z,12.10
2019-04-05T12:26:42.791Z,12.00
2019-04-05T12:29:11.341Z,11.87
2019-04-05T12:31:39.820Z,11.37
2019-04-05T12:34:08.019Z,11.83
2019-04-05T12:36:36.315Z,12.80
2019-04-05T12:39:08.253Z,12.63
2019-04-05T12:41:38.424Z,12.03
2019-04-05T12:44:07.398Z,13.13
2019-04-05T12:46:35.600Z,15.40
2019-04-05T12:49:04.754Z,13.20
2019-04-05T12:51:33.146Z,13.67
2019-04-05T12:54:01.456Z,14.23
2019-04-05T12:56:29.719Z,15.07
2019-04-05T12:58:58.320Z,14.20
2019-04-05T13:01:26.555Z,14.40
2019-04-05T13:03:55.236Z,14.47
2019-04-05T13:06:23.896Z,13.73
2019-04-05T13:08:53.720Z,16.40
2019-04-05T13:11:25.901Z,14.97
2019-04-05T13:13:54.277Z,15.40
2019-04-05T13:16:22.360Z,16.20
2019-04-05T13:18:50.587Z,14.10
2019-04-05T13:21:18.817Z,14.53
2019-04-05T13:23:47.077Z,14.17
2019-04-05T13:26:15.307Z,14.37
2019-04-05T13:28:43.681Z,13.93
2019-04-05T13:31:11.908Z,15.70
2019-04-05T13:33:40.163Z,15.83
2019-04-05T13:36:08.639Z,15.93
2019-04-05T13:38:36.938Z,16.27
2019-04-05T13:41:05.164Z,15.33
2019-04-05T13:43:33.433Z,16.03
2019-04-05T13:46:01.719Z,15.20
2019-04-05T13:48:30.045Z,15.87
2019-04-05T13:50:58.281Z,16.47
2019-04-05T13:53:26.539Z,14.43
2019-04-05T13:55:54.764Z,15.13
2019-04-05T13:58:23.025Z,15.47
2019-04-05T14:00:51.256Z,15.37
2019-04-05T14:03:20.886Z,16.80
2019-04-05T14:05:50.104Z,15.73
2019-04-05T14:08:19.329Z,16.77
2019-04-05T14:10:47.560Z,16.47
2019-04-05T14:13:15.884Z,17.63
2019-04-05T14:15:44.147Z,17.00
2019-04-05T14:18:14.478Z,16.60
2019-04-05T14:20:42.346Z,16.87
2019-04-05T14:23:10.718Z,16.37
2019-04-05T14:25:39.944Z,17.13
2019-04-05T14:28:08.214Z,17.50
2019-04-05T14:30:36.554Z,17.27
2019-04-05T14:33:04.941Z,18.40
2019-04-05T14:35:33.226Z,18.10
2019-04-05T14:38:01.590Z,17.33
2019-04-05T14:40:32.922Z,18.10
2019-04-05T14:42:59.859Z,17.33
2019-04-05T14:45:28.141Z,17.63
2019-04-05T14:47:58.459Z,16.80
2019-04-05T14:50:28.332Z,17.83
2019-04-05T14:53:00.935Z,17.40
2019-04-05T14:55:29.743Z,18.00
2019-04-05T14:57:58.735Z,16.97
2019-04-05T15:00:27.165Z,17.87
2019-04-05T15:02:55.395Z,18.20
2019-04-05T15:05:23.661Z,18.20
2019-04-05T15:07:54.806Z,18.57
2019-04-05T15:10:25.011Z,17.80
2019-04-05T15:12:51.917Z,17.83
2019-04-05T15:15:20.144Z,18.30
2019-04-05T15:17:48.958Z,18.63
2019-04-05T15:20:19.850Z,18.13
2019-04-05T15:22:48.299Z,18.63
2019-04-05T15:25:21.840Z,18.23
2019-04-05T15:27:55.162Z,18.83
2019-04-05T15:30:21.141Z,19.27
2019-04-05T15:32:51.403Z,18.93
2019-04-05T15:35:19.557Z,19.93
2019-04-05T15:37:47.982Z,20.87
2019-04-05T15:40:16.777Z,19.33
2019-04-05T15:42:45.436Z,19.33
2019-04-05T15:45:16.222Z,19.00
2019-04-05T15:47:43.740Z,22.00
2019-04-05T15:50:12.156Z,22.10
2019-04-05T15:52:40.397Z,20.87
2019-04-05T15:55:08.819Z,20.70
2019-04-05T15:57:39.475Z,21.80
2019-04-05T16:00:09.237Z,21.60
2019-04-05T16:02:37.692Z,21.63
2019-04-05T16:05:06.732Z,21.50
2019-04-05T16:07:35.525Z,21.47
2019-04-05T16:10:05.930Z,21.50
2019-04-05T16:12:36.376Z,21.37
2019-04-05T16:15:05.949Z,24.10
2019-04-05T16:17:36.134Z,20.73
2019-04-05T16:20:08.823Z,21.03
2019-04-05T16:22:40.128Z,20.67
2019-04-05T16:25:11.352Z,21.07
2019-04-05T16:27:39.580Z,20.53
2019-04-05T16:30:08.408Z,21.60
2019-04-05T16:32:36.696Z,22.43
2019-04-05T16:35:08.491Z,21.73
2019-04-05T16:37:37.053Z,22.20
2019-04-05T16:40:08.735Z,22.70
2019-04-05T16:42:37.042Z,20.87
2019-04-05T16:45:11.682Z,20.40
2019-04-05T16:47:40.054Z,22.07
2019-04-05T16:50:08.990Z,22.17
2019-04-05T16:52:44.703Z,21.77
2019-04-05T16:55:07.567Z,21.50
2019-04-05T16:57:35.801Z,21.73
2019-04-05T17:00:05.572Z,22.00
2019-04-05T17:02:33.832Z,21.30
2019-04-05T17:05:02.442Z,20.70
2019-04-05T17:07:31.599Z,22.13
2019-04-05T17:10:00.076Z,25.43
2019-04-05T17:12:28.407Z,26.30
2019-04-05T17:14:56.641Z,23.57
2019-04-05T17:17:24.974Z,19.97
2019-04-05T17:19:53.224Z,20.93
2019-04-05T17:22:21.488Z,20.87
2019-04-05T17:24:49.712Z,27.17
2019-04-05T17:27:18.058Z,23.37
2019-04-05T17:29:46.362Z,21.30
2019-04-05T17:32:14.765Z,22.43
2019-04-05T17:34:43.695Z,22.10
2019-04-05T17:37:12.217Z,20.27
2019-04-05T17:39:40.990Z,20.70
2019-04-05T17:42:09.463Z,20.23
2019-04-05T17:44:37.845Z,23.77
2019-04-05T17:47:07.647Z,21.30
2019-04-05T17:49:35.884Z,21.57
2019-04-05T17:52:04.372Z,22.57
2019-04-05T17:54:32.616Z,24.37
2019-04-05T17:57:00.880Z,20.50
2019-04-05T17:59:29.113Z,22.03
2019-04-05T18:01:57.445Z,21.17
2019-04-05T18:04:25.771Z,21.70
2019-04-05T18:06:53.996Z,22.37
2019-04-05T18:09:22.336Z,22.20
2019-04-05T18:11:50.573Z,21.17
2019-04-05T18:14:18.902Z,21.80
2019-04-05T18:16:47.238Z,20.17
2019-04-05T18:19:15.539Z,22.87
2019-04-05T18:21:43.868Z,22.43
2019-04-05T18:24:12.136Z,22.47
2019-04-05T18:26:40.700Z,22.20
2019-04-05T18:29:09.205Z,22.87
2019-04-05T18:31:37.605Z,23.00
2019-04-05T18:34:05.951Z,22.30
2019-04-05T18:36:35.583Z,23.07
2019-04-05T18:39:05.676Z,21.23
2019-04-05T18:41:34.056Z,21.33
2019-04-05T18:44:02.402Z,22.13
2019-04-05T18:46:30.811Z,19.17
2019-04-05T18:48:59.068Z,22.57
2019-04-05T18:51:30.667Z,20.33
2019-04-05T18:53:58.967Z,21.83
2019-04-05T18:56:27.312Z,27.77
2019-04-05T18:58:57.040Z,26.97
2019-04-05T19:01:25.718Z,27.33
2019-04-05T19:03:55.567Z,27.37
2019-04-05T19:06:26.070Z,27.63
2019-04-05T19:08:59.081Z,23.87
2019-04-05T19:11:27.526Z,24.53
2019-04-05T19:14:01.217Z,23.87
2019-04-05T19:16:26.105Z,25.30
2019-04-05T19:18:54.459Z,24.60
2019-04-05T19:21:22.729Z,26.47
2019-04-05T19:23:51.381Z,26.90
2019-04-05T19:26:19.621Z,27.53
2019-04-05T19:28:48.546Z,28.57
2019-04-05T19:48:46.382Z,22.37
2019-04-05T19:51:14.639Z,19.30
2019-04-05T19:53:42.876Z,19.60
2019-04-05T19:56:11.397Z,23.43
2019-04-05T19:58:39.956Z,22.40
2019-04-05T20:01:08.717Z,23.83
2019-04-05T20:03:37.362Z,23.37
2019-04-05T20:06:07.890Z,20.00
2019-04-05T20:08:36.429Z,20.23
2019-04-05T20:11:05.274Z,24.10
2019-04-05T20:13:38.621Z,24.70
2019-04-05T20:16:07.020Z,25.37
2019-04-05T20:18:35.276Z,22.97
2019-04-05T20:21:03.698Z,24.93
2019-04-05T20:23:33.448Z,22.47
2019-04-05T20:26:03.248Z,21.70
2019-04-05T20:28:32.584Z,21.13
2019-04-05T20:31:02.073Z,24.50
2019-04-05T20:33:31.085Z,23.43
2019-04-05T20:35:59.456Z,22.93
2019-04-05T20:38:28.521Z,20.50
2019-04-05T20:40:57.086Z,20.10
2019-04-05T20:43:25.481Z,20.40
2019-04-05T20:45:54.008Z,24.03
2019-04-05T20:48:23.753Z,23.97
2019-04-05T20:50:52.165Z,23.27
2019-04-05T20:53:21.062Z,24.30
2019-04-05T20:55:49.712Z,24.03
2019-04-05T20:58:18.046Z,24.47
2019-04-05T21:00:46.308Z,22.63
2019-04-05T21:03:14.690Z,25.60
2019-04-05T21:05:43.004Z,24.93
2019-04-05T21:08:11.243Z,23.40
2019-04-05T21:10:40.379Z,24.63
2019-04-05T21:13:08.649Z,21.90
2019-04-05T21:15:37.285Z,26.73
2019-04-05T21:18:05.633Z,31.37
2019-04-05T21:20:33.965Z,29.80
2019-04-05T21:23:02.193Z,28.53
2019-04-05T21:25:30.571Z,29.43
2019-04-05T21:27:59.577Z,26.20
2019-04-05T21:30:29.492Z,26.57
2019-04-05T21:33:00.209Z,29.60
2019-04-05T21:35:28.456Z,27.10
2019-04-05T21:37:56.792Z,24.10
2019-04-05T21:40:25.097Z,27.63
2019-04-05T21:42:53.353Z,26.73
2019-04-05T21:45:21.769Z,26.73
2019-04-05T21:47:50.489Z,24.73
2019-04-05T21:50:18.744Z,25.90
2019-04-05T21:52:46.964Z,22.40
2019-04-05T21:55:15.224Z,25.80
2019-04-05T21:57:43.515Z,26.93
2019-04-05T22:00:16.911Z,24.40
2019-04-05T22:02:45.464Z,27.43
2019-04-05T22:05:13.779Z,28.97
2019-04-05T22:07:42.464Z,27.50
2019-04-05T22:10:10.812Z,28.10
2019-04-05T22:12:39.124Z,26.57
2019-04-05T22:15:07.637Z,26.40
2019-04-05T22:17:35.864Z,25.63
2019-04-05T22:20:05.615Z,25.70
2019-04-05T22:22:33.915Z,27.93
2019-04-05T22:25:02.253Z,26.97
2019-04-05T22:27:30.559Z,25.00
2019-04-05T22:29:58.829Z,27.27
2019-04-05T22:32:27.841Z,24.47
2019-04-05T22:34:56.874Z,24.13
2019-04-05T22:37:25.097Z,24.70
2019-04-05T22:39:53.355Z,26.77
2019-04-05T22:42:21.571Z,27.87
2019-04-05T22:44:49.904Z,26.50
2019-04-05T22:47:18.491Z,26.07
2019-04-05T22:49:46.783Z,27.43
2019-04-05T22:52:15.177Z,24.57
2019-04-05T22:54:43.401Z,24.23
2019-04-05T22:57:11.665Z,28.60
2019-04-05T22:59:39.888Z,28.43
2019-04-05T23:02:08.153Z,28.23
2019-04-05T23:04:36.392Z,27.57
2019-04-05T23:07:04.716Z,27.90
2019-04-05T23:09:32.972Z,26.40
2019-04-05T23:12:01.205Z,28.17
2019-04-05T23:14:29.437Z,28.43
2019-04-05T23:16:57.688Z,27.50
2019-04-05T23:19:28.477Z,25.27
2019-04-05T23:21:56.800Z,24.10
2019-04-05T23:24:25.028Z,23.27
2019-04-05T23:26:53.293Z,26.83
2019-04-05T23:29:21.520Z,27.20
2019-04-05T23:31:49.930Z,26.87
2019-04-05T23:34:18.154Z,25.37
2019-04-05T23:36:46.416Z,24.33
2019-04-05T23:39:14.661Z,22.43
2019-04-05T23:41:42.964Z,25.90
2019-04-05T23:44:11.188Z,24.30
2019-04-05T23:46:39.452Z,28.50
2019-04-05T23:49:07.670Z,26.47
2019-04-05T23:51:36.023Z,26.70
2019-04-05T23:54:04.307Z,24.77
2019-04-05T23:56:32.566Z,29.40
2019-04-05T23:59:00.797Z,26.90
